Time;durP1;ratioP1;P1;durP2;ratioP2;P2;SDS_P1;SDS_P2;PMS_P1;PMS_P2;Temp;Humidity;BMP_temperature;BMP_pressure;BME280_temperature;BME280_humidity;BME280_pressure;Samples;Min_cycle;Max_cycle;Signal;HPM_P1;HPM_P2
2022/01/06 00:00:36;;;;;;;11.00;3.45;;;;;;;3.64;72.52;99630.91;1087188;54;20059;-77
2022/01/06 00:01:40;;;;;;;12.20;3.30;;;;;;;3.50;72.64;99640.66;1087203;54;20031;-76
2022/01/06 00:02:41;;;;;;;11.98;4.10;;;;;;;3.63;72.23;99634.50;1088743;39;20746;-79
2022/01/06 00:03:48;;;;;;;10.32;3.28;;;;;;;3.64;72.17;99633.56;1087257;54;21116;-76
2022/01/06 00:04:50;;;;;;;12.18;3.42;;;;;;;3.66;72.27;99632.47;1087150;54;20048;-76
2022/01/06 00:05:54;;;;;;;8.02;2.95;;;;;;;3.64;71.89;99631.75;1087260;54;20046;-77
2022/01/06 00:06:56;;;;;;;12.52;4.30;;;;;;;3.53;72.29;99635.16;1087248;54;20038;-78
2022/01/06 00:08:01;;;;;;;10.07;3.33;;;;;;;3.62;72.36;99632.81;1087168;54;20034;-77
2022/01/06 00:09:03;;;;;;;12.77;2.97;;;;;;;3.59;72.00;99632.06;1087190;54;20038;-77
2022/01/06 00:10:12;;;;;;;12.57;3.63;;;;;;;3.57;72.06;99634.00;1087290;54;20380;-77
2022/01/06 00:11:16;;;;;;;8.07;2.88;;;;;;;3.62;72.00;99632.81;1087083;54;20066;-78
2022/01/06 00:12:20;;;;;;;12.43;4.03;;;;;;;3.63;71.94;99639.78;1087316;54;20084;-76
2022/01/06 00:13:33;;;;;;;13.10;3.15;;;;;;;3.72;71.82;99642.63;1087316;54;20034;-76
2022/01/06 00:14:50;;;;;;;6.75;2.90;;;;;;;3.71;71.90;99632.16;1087072;54;20453;-76
2022/01/06 00:16:13;;;;;;;11.25;3.15;;;;;;;3.83;71.46;99646.28;1087342;54;20030;-76
2022/01/06 00:17:24;;;;;;;12.68;3.70;;;;;;;3.72;71.84;99644.41;1087137;54;20058;-77
2022/01/06 00:18:45;;;;;;;10.27;3.20;;;;;;;3.72;71.75;99647.06;1087247;54;20058;-77
2022/01/06 00:23:56;;;;;;;10.35;3.85;;;;;;;3.68;71.94;99653.53;1086995;39;20680;-77
2022/01/06 00:24:57;;;;;;;7.72;2.60;;;;;;;3.72;72.00;99650.56;1086604;54;20035;-78
2022/01/06 00:26:02;;;;;;;11.52;3.72;;;;;;;3.74;72.07;99645.16;1086819;54;20389;-77
2022/01/06 00:27:04;;;;;;;7.43;2.40;;;;;;;3.74;71.94;99647.81;1086619;54;20038;-76
2022/01/06 00:28:08;;;;;;;9.15;2.65;;;;;;;3.88;71.55;99646.81;1086785;54;20034;-77
2022/01/06 00:29:12;;;;;;;12.38;3.13;;;;;;;3.77;71.76;99652.00;1086809;54;20065;-77
2022/01/06 00:30:17;;;;;;;9.20;3.55;;;;;;;3.78;71.83;99651.91;1086684;54;20815;-78
2022/01/06 00:31:18;;;;;;;10.32;3.00;;;;;;;3.67;72.06;99647.38;1086742;54;20041;-76
2022/01/06 00:32:22;;;;;;;10.95;3.50;;;;;;;3.69;72.12;99655.19;1086763;54;20861;-77
2022/01/06 00:33:27;;;;;;;10.88;3.30;;;;;;;3.68;72.29;99649.09;1087110;54;20039;-77
2022/01/06 00:34:32;;;;;;;11.77;3.60;;;;;;;3.65;72.35;99643.19;1087516;39;21121;-78
2022/01/06 00:35:36;;;;;;;10.10;3.67;;;;;;;3.77;72.14;99647.59;1088143;39;20622;-78
2022/01/06 00:36:41;;;;;;;12.10;3.25;;;;;;;3.74;72.24;99646.00;1087175;54;20103;-77
2022/01/06 00:37:42;;;;;;;8.57;2.97;;;;;;;3.73;72.34;99639.00;1087178;54;20035;-77
2022/01/06 00:38:47;;;;;;;12.48;3.95;;;;;;;3.59;72.54;99645.28;1087150;54;20041;-77
2022/01/06 00:39:48;;;;;;;10.93;3.35;;;;;;;3.63;72.67;99645.06;1087179;54;20026;-77
2022/01/06 00:40:52;;;;;;;11.40;3.58;;;;;;;3.72;72.38;99644.41;1088508;39;20215;-77
2022/01/06 00:41:56;;;;;;;8.02;2.90;;;;;;;3.80;72.15;99646.50;1087161;54;20042;-76
2022/01/06 00:43:01;;;;;;;9.90;2.97;;;;;;;3.81;72.02;99650.84;1087177;54;20034;-77
2022/01/06 00:44:04;;;;;;;12.27;3.75;;;;;;;3.77;72.03;99647.59;1087126;54;20030;-77
2022/01/06 00:45:09;;;;;;;10.77;3.00;;;;;;;3.83;71.84;99647.13;1087337;54;20034;-77
2022/01/06 00:46:11;;;;;;;9.43;3.42;;;;;;;3.95;71.74;99649.84;1087122;54;20038;-77
2022/01/06 00:47:15;;;;;;;9.23;3.00;;;;;;;3.81;71.80;99645.56;1089522;39;20678;-78
2022/01/06 00:48:16;;;;;;;14.20;3.72;;;;;;;3.74;72.00;99653.09;1087106;54;20691;-77
2022/01/06 00:49:21;;;;;;;12.07;3.88;;;;;;;3.73;72.07;99656.69;1087119;54;20497;-78
2022/01/06 00:50:23;;;;;;;11.82;2.95;;;;;;;3.85;72.02;99649.66;1087222;54;20775;-77
2022/01/06 00:51:29;;;;;;;9.40;2.80;;;;;;;3.95;71.73;99655.13;1087305;54;20380;-77
2022/01/06 00:52:34;;;;;;;8.93;2.97;;;;;;;3.90;71.81;99653.66;1087379;46;20034;-77
2022/01/06 00:53:35;;;;;;;10.63;3.55;;;;;;;3.96;71.70;99652.38;1087133;54;20034;-77
2022/01/06 00:54:40;;;;;;;11.23;3.05;;;;;;;3.96;71.53;99647.09;1087202;54;20041;-77
2022/01/06 00:55:41;;;;;;;12.90;3.72;;;;;;;3.87;71.90;99653.03;1092014;39;20777;-78
2022/01/06 00:56:45;;;;;;;8.07;2.78;;;;;;;3.93;71.70;99654.41;1088912;39;20659;-78
2022/01/06 00:57:47;;;;;;;11.00;3.40;;;;;;;3.88;72.06;99644.97;1087333;54;20416;-77
2022/01/06 00:58:51;;;;;;;9.05;2.75;;;;;;;3.91;71.91;99649.22;1087151;54;20038;-77
2022/01/06 00:59:53;;;;;;;10.65;3.08;;;;;;;3.82;71.77;99661.31;1086811;54;20677;-77
2022/01/06 01:00:57;;;;;;;11.40;3.67;;;;;;;3.84;71.83;99659.41;1087328;46;20030;-77
2022/01/06 01:01:58;;;;;;;8.40;3.25;;;;;;;3.97;71.50;99655.88;1087054;54;20038;-78
2022/01/06 01:03:04;;;;;;;10.82;2.97;;;;;;;3.97;71.69;99656.72;1087026;54;20042;-77
2022/01/06 01:04:06;;;;;;;8.65;2.85;;;;;;;4.03;71.43;99666.84;1089621;39;20331;-77
2022/01/06 01:05:11;;;;;;;9.30;2.75;;;;;;;3.99;71.47;99667.16;1087142;54;20053;-77
2022/01/06 01:06:13;;;;;;;5.97;2.30;;;;;;;4.06;71.19;99668.44;1087155;54;20038;-77
2022/01/06 01:07:20;;;;;;;7.63;2.58;;;;;;;4.14;71.08;99676.66;1087226;54;20038;-77
2022/01/06 01:08:23;;;;;;;7.32;2.45;;;;;;;4.13;71.16;99672.31;1087197;54;20030;-77
2022/01/06 01:09:27;;;;;;;8.88;2.92;;;;;;;4.00;71.54;99667.06;1087112;54;20034;-77
2022/01/06 01:10:29;;;;;;;9.48;3.20;;;;;;;4.06;71.41;99674.56;1087107;54;20063;-77
2022/01/06 01:11:33;;;;;;;8.40;2.90;;;;;;;4.01;71.48;99671.41;1087276;54;20743;-77
2022/01/06 01:12:35;;;;;;;12.00;3.20;;;;;;;3.97;71.53;99666.47;1087902;39;20626;-78
2022/01/06 01:13:54;;;;;;;9.52;3.65;;;;;;;3.92;71.74;99668.56;1087241;54;20107;-77
2022/01/06 01:14:58;;;;;;;11.05;2.83;;;;;;;3.87;71.74;99675.03;1090351;39;20195;-77
2022/01/06 01:16:10;;;;;;;9.93;3.45;;;;;;;3.97;71.67;99667.28;1087204;54;20030;-77
2022/01/06 01:17:14;;;;;;;9.48;2.60;;;;;;;4.05;71.31;99672.03;1089721;39;21094;-77
2022/01/06 01:18:20;;;;;;;9.30;3.42;;;;;;;4.06;71.47;99684.31;1087213;54;20037;-77
2022/01/06 01:19:22;;;;;;;13.45;3.85;;;;;;;4.01;71.42;99682.00;1087166;54;20063;-77
2022/01/06 01:20:26;;;;;;;9.90;4.35;;;;;;;3.89;72.00;99673.13;1087300;54;20037;-77
2022/01/06 01:21:28;;;;;;;10.27;3.42;;;;;;;3.89;72.05;99677.59;1087189;54;20038;-77
2022/01/06 01:22:35;;;;;;;10.75;3.40;;;;;;;3.89;72.35;99677.59;1087155;54;20064;-77
2022/01/06 01:23:39;;;;;;;13.43;3.55;;;;;;;3.92;72.44;99676.50;1087266;54;20033;-77
2022/01/06 01:24:41;;;;;;;11.95;3.50;;;;;;;3.97;71.97;99682.31;1087101;54;20781;-77
2022/01/06 01:25:46;;;;;;;9.90;3.10;;;;;;;3.92;71.97;99684.44;1087181;54;20041;-78
2022/01/06 01:26:48;;;;;;;8.75;3.35;;;;;;;3.90;72.12;99685.41;1087208;54;20035;-76
2022/01/06 01:27:55;;;;;;;9.48;3.00;;;;;;;4.04;71.95;99680.91;1087226;54;20037;-77
2022/01/06 01:28:59;;;;;;;11.32;3.17;;;;;;;4.18;71.52;99693.97;1087025;54;20031;-77
2022/01/06 01:30:04;;;;;;;9.57;3.10;;;;;;;4.05;71.72;99686.09;1087241;54;20058;-77
2022/01/06 01:31:24;;;;;;;9.85;3.33;;;;;;;4.09;71.75;99689.34;1087204;54;20102;-77
2022/01/06 01:32:31;;;;;;;6.32;2.65;;;;;;;4.02;71.76;99688.94;1087219;54;20019;-77
2022/01/06 01:33:37;;;;;;;9.52;2.75;;;;;;;4.13;71.73;99690.84;1087198;54;20805;-77
2022/01/06 01:34:40;;;;;;;12.45;3.67;;;;;;;4.00;71.75;99692.66;1087107;54;20114;-78
2022/01/06 01:35:45;;;;;;;12.45;3.05;;;;;;;4.00;71.81;99687.38;1087588;39;20725;-77
2022/01/06 01:36:46;;;;;;;9.20;4.15;;;;;;;4.08;71.65;99692.94;1087321;54;20058;-77
2022/01/06 01:37:53;;;;;;;7.20;2.70;;;;;;;4.03;71.55;99687.16;1087144;54;20063;-76
2022/01/06 01:38:55;;;;;;;8.50;2.88;;;;;;;4.00;71.77;99688.25;1086986;54;20038;-77
2022/01/06 01:39:59;;;;;;;7.43;2.70;;;;;;;4.11;71.84;99682.16;1087140;54;20046;-77
2022/01/06 01:41:01;;;;;;;13.93;3.65;;;;;;;4.06;71.56;99684.31;1087160;54;20038;-77
2022/01/06 01:42:06;;;;;;;13.07;3.78;;;;;;;3.95;71.69;99692.16;1087107;54;20354;-78
2022/01/06 01:43:08;;;;;;;9.75;2.70;;;;;;;4.03;71.82;99688.00;1087369;39;20599;-77
2022/01/06 01:44:16;;;;;;;12.05;3.60;;;;;;;3.99;71.81;99677.75;1086965;54;20098;-77
2022/01/06 01:45:18;;;;;;;10.05;3.10;;;;;;;4.15;71.62;99691.56;1087137;54;20035;-78
2022/01/06 01:46:28;;;;;;;8.15;2.72;;;;;;;4.28;71.05;99682.72;1087878;46;20042;-77
2022/01/06 01:47:32;;;;;;;8.48;2.72;;;;;;;4.31;70.85;99687.78;1087157;54;20038;-77
2022/01/06 01:48:39;;;;;;;13.32;3.60;;;;;;;4.26;71.03;99693.41;1087045;54;20037;-77
2022/01/06 01:49:48;;;;;;;8.65;2.60;;;;;;;4.42;70.70;99689.63;1087820;39;20403;-77
2022/01/06 01:50:52;;;;;;;6.85;2.30;;;;;;;4.46;70.88;99693.75;1087705;46;20066;-77
2022/01/06 01:51:55;;;;;;;9.27;2.53;;;;;;;4.50;70.48;99693.41;1087152;54;20038;-77
2022/01/06 01:53:02;;;;;;;7.82;2.30;;;;;;;4.59;70.38;99691.03;1087161;54;20706;-77
2022/01/06 01:54:04;;;;;;;8.30;2.83;;;;;;;4.43;70.60;99686.03;1087111;54;20039;-78
2022/01/06 01:55:09;;;;;;;11.18;2.78;;;;;;;4.35;70.64;99700.69;1087062;54;20058;-78
2022/01/06 01:56:12;;;;;;;12.30;3.20;;;;;;;4.11;70.86;99689.25;1087116;54;20045;-78
2022/01/06 01:57:16;;;;;;;10.15;3.28;;;;;;;4.18;70.94;99699.25;1087108;54;20034;-78
2022/01/06 01:58:20;;;;;;;8.48;3.53;;;;;;;4.11;71.23;99703.31;1087122;54;20762;-77
2022/01/06 01:59:24;;;;;;;11.48;2.65;;;;;;;4.10;71.18;99700.78;1088255;39;20320;-78
2022/01/06 02:00:28;;;;;;;11.73;3.25;;;;;;;4.16;71.12;99700.34;1086890;47;20035;-78
2022/01/06 02:01:32;;;;;;;7.13;2.90;;;;;;;4.29;70.75;99706.44;1087128;54;20030;-77
2022/01/06 02:02:34;;;;;;;9.32;2.80;;;;;;;4.34;70.50;99708.75;1087149;54;20035;-78
2022/01/06 02:03:38;;;;;;;9.85;3.20;;;;;;;4.24;70.52;99707.72;1087160;54;20035;-78
2022/01/06 02:04:40;;;;;;;11.27;3.60;;;;;;;4.22;70.56;99695.44;1087419;39;20721;-77
2022/01/06 02:05:44;;;;;;;7.40;2.83;;;;;;;4.35;70.52;99707.75;1087146;54;20058;-78
2022/01/06 02:06:45;;;;;;;12.05;3.25;;;;;;;4.44;70.34;99708.91;1087118;54;20041;-78
2022/01/06 02:07:50;;;;;;;8.50;3.10;;;;;;;4.52;70.16;99703.88;1087086;54;20037;-78
2022/01/06 02:08:54;;;;;;;9.70;3.88;;;;;;;4.53;69.78;99702.91;1087101;54;20030;-78
2022/01/06 02:09:58;;;;;;;6.07;2.60;;;;;;;4.46;69.89;99705.16;1087187;54;20035;-78
2022/01/06 02:11:00;;;;;;;5.60;2.42;;;;;;;4.56;69.77;99700.03;1087126;54;20078;-79
2022/01/06 02:12:05;;;;;;;6.78;2.15;;;;;;;4.64;69.71;99704.75;1087213;54;20031;-78
2022/01/06 02:13:06;;;;;;;10.77;2.80;;;;;;;4.62;69.83;99696.94;1087169;54;20086;-78
2022/01/06 02:14:10;;;;;;;8.25;2.50;;;;;;;4.69;69.49;99694.66;1087092;54;20031;-77
2022/01/06 02:15:12;;;;;;;10.48;3.42;;;;;;;4.40;70.04;99697.69;1087103;54;20046;-78
2022/01/06 02:16:16;;;;;;;9.45;3.03;;;;;;;4.31;70.65;99695.72;1087163;54;20070;-77
2022/01/06 02:17:18;;;;;;;10.15;3.17;;;;;;;4.40;70.11;99692.41;1087477;39;20380;-78
2022/01/06 02:18:22;;;;;;;10.75;2.97;;;;;;;4.36;70.35;99696.22;1087106;54;20054;-78
2022/01/06 02:19:24;;;;;;;7.20;2.45;;;;;;;4.52;70.01;99701.22;1088319;47;20042;-78
2022/01/06 02:20:30;;;;;;;9.93;2.92;;;;;;;4.54;69.87;99707.25;1087058;54;20030;-77
2022/01/06 02:21:32;;;;;;;8.10;2.95;;;;;;;4.41;69.96;99714.41;1087209;47;20030;-77
2022/01/06 02:22:36;;;;;;;9.50;2.85;;;;;;;4.33;70.05;99710.53;1086575;54;20030;-78
2022/01/06 02:23:38;;;;;;;10.38;3.72;;;;;;;4.42;70.19;99711.66;1087043;54;20034;-77
2022/01/06 02:24:42;;;;;;;14.38;3.10;;;;;;;4.24;70.31;99702.44;1087170;54;20292;-79
2022/01/06 02:25:44;;;;;;;7.95;2.60;;;;;;;4.45;70.15;99715.88;1087114;54;20050;-78
2022/01/06 02:26:48;;;;;;;7.65;2.90;;;;;;;4.43;70.01;99718.66;1087060;54;20042;-77
2022/01/06 02:27:52;;;;;;;9.73;2.40;;;;;;;4.38;70.12;99720.78;1087163;54;20041;-78
2022/01/06 02:28:56;;;;;;;9.73;3.05;;;;;;;4.55;69.93;99726.63;1087124;54;20030;-78
2022/01/06 02:29:58;;;;;;;6.28;2.25;;;;;;;4.62;69.62;99727.88;1087005;54;20041;-77
2022/01/06 02:31:02;;;;;;;7.53;2.35;;;;;;;4.66;69.29;99716.06;1087128;54;20038;-77
2022/01/06 02:32:07;;;;;;;8.13;2.53;;;;;;;4.76;69.32;99721.53;1087151;54;20046;-77
2022/01/06 02:33:12;;;;;;;8.07;2.55;;;;;;;4.64;69.62;99715.34;1087078;54;20038;-79
2022/01/06 02:34:14;;;;;;;8.30;2.40;;;;;;;4.52;69.87;99725.91;1087012;54;20116;-77
2022/01/06 02:35:20;;;;;;;10.45;3.10;;;;;;;4.43;70.32;99723.94;1087119;54;20035;-77
2022/01/06 02:36:24;;;;;;;10.40;3.67;;;;;;;4.57;69.82;99728.22;1086997;54;20046;-78
2022/01/06 02:37:29;;;;;;;8.98;2.75;;;;;;;4.55;69.75;99729.25;1087121;54;20034;-77
2022/01/06 02:38:34;;;;;;;8.25;2.70;;;;;;;4.63;69.59;99721.63;1089755;39;20678;-76
2022/01/06 02:39:36;;;;;;;8.68;2.67;;;;;;;4.49;69.73;99731.41;1086934;54;20035;-75
2022/01/06 02:40:41;;;;;;;7.03;2.70;;;;;;;4.42;69.99;99727.53;1087155;54;20948;-78
2022/01/06 02:41:42;;;;;;;7.95;2.65;;;;;;;4.58;69.73;99726.41;1087105;54;20039;-77
2022/01/06 02:42:49;;;;;;;7.53;2.97;;;;;;;4.63;69.53;99719.81;1086946;54;20031;-76
2022/01/06 02:43:51;;;;;;;11.70;3.42;;;;;;;4.57;69.64;99730.00;1087120;54;20042;-75
2022/01/06 02:44:55;;;;;;;8.70;2.70;;;;;;;4.52;69.94;99736.50;1087054;54;20050;-77
2022/01/06 02:45:58;;;;;;;12.25;3.40;;;;;;;4.58;69.82;99731.69;1086953;54;20038;-75
2022/01/06 02:47:02;;;;;;;9.55;2.95;;;;;;;4.63;69.66;99730.41;1087090;54;20030;-75
2022/01/06 02:48:08;;;;;;;11.60;3.10;;;;;;;4.61;69.42;99742.06;1087075;54;20057;-76
2022/01/06 02:49:15;;;;;;;10.80;3.08;;;;;;;4.53;69.93;99746.09;1086939;54;20034;-76
2022/01/06 02:50:17;;;;;;;10.02;2.80;;;;;;;4.49;69.96;99744.66;1087162;54;20034;-76
2022/01/06 02:51:21;;;;;;;7.85;2.50;;;;;;;4.35;70.35;99743.03;1087113;54;20729;-77
2022/01/06 02:52:26;;;;;;;9.63;3.00;;;;;;;4.29;70.91;99742.63;1086968;54;20781;-76
2022/01/06 02:53:30;;;;;;;8.18;2.75;;;;;;;4.45;70.52;99745.81;1087140;54;20030;-76
2022/01/06 02:54:32;;;;;;;7.80;2.63;;;;;;;4.36;70.48;99750.00;1086998;54;20030;-76
2022/01/06 02:55:37;;;;;;;10.82;3.53;;;;;;;4.30;70.89;99753.09;1086900;54;20057;-76
2022/01/06 02:56:39;;;;;;;8.52;2.80;;;;;;;4.36;70.69;99754.44;1086956;54;20041;-76
2022/01/06 02:57:44;;;;;;;13.68;3.30;;;;;;;4.38;70.81;99757.81;1086957;54;20805;-75
2022/01/06 02:58:46;;;;;;;12.20;3.60;;;;;;;4.26;71.28;99750.78;1086990;54;20015;-76
2022/01/06 02:59:50;;;;;;;8.65;2.40;;;;;;;4.31;71.39;99754.78;1086964;54;20035;-76
2022/01/06 03:00:52;;;;;;;9.68;2.83;;;;;;;4.40;70.72;99755.91;1086806;54;20501;-77
2022/01/06 03:01:56;;;;;;;11.52;2.90;;;;;;;4.30;71.16;99760.19;1086729;54;20042;-76
2022/01/06 03:02:57;;;;;;;11.10;2.85;;;;;;;4.29;71.52;99758.50;1086934;54;20062;-76
2022/01/06 03:04:02;;;;;;;8.77;3.08;;;;;;;4.18;71.50;99752.19;1087006;54;20034;-77
2022/01/06 03:05:04;;;;;;;9.05;2.72;;;;;;;4.23;71.96;99757.13;1086902;54;20030;-76
2022/01/06 03:06:08;;;;;;;10.25;2.83;;;;;;;4.21;71.93;99757.25;1087040;54;20018;-76
2022/01/06 03:07:11;;;;;;;12.82;3.45;;;;;;;4.01;72.15;99755.19;1087086;54;20038;-76
2022/01/06 03:08:22;;;;;;;10.77;2.90;;;;;;;4.18;72.14;99761.94;1086735;54;20042;-76
2022/01/06 03:09:37;;;;;;;9.05;3.28;;;;;;;4.11;72.39;99760.69;1090191;39;20691;-77
2022/01/06 03:10:42;;;;;;;9.05;2.75;;;;;;;4.14;72.40;99756.03;1087087;54;20035;-76
2022/01/06 03:11:47;;;;;;;7.88;2.75;;;;;;;3.96;72.64;99752.88;1086900;54;20059;-76
2022/01/06 03:12:48;;;;;;;9.65;2.75;;;;;;;4.07;72.73;99762.69;1087049;54;20041;-76
2022/01/06 03:13:52;;;;;;;12.05;3.97;;;;;;;4.06;72.49;99761.03;1086982;54;20798;-77
2022/01/06 03:14:54;;;;;;;11.77;3.88;;;;;;;4.00;72.90;99761.44;1086885;54;20062;-77
2022/01/06 03:15:59;;;;;;;10.45;3.20;;;;;;;4.02;72.75;99760.38;1087009;54;20030;-77
2022/01/06 03:17:00;;;;;;;9.65;2.92;;;;;;;4.01;73.03;99776.34;1087096;54;20030;-76
2022/01/06 03:18:04;;;;;;;8.60;3.17;;;;;;;3.99;72.96;99772.97;1086894;54;21102;-76
2022/01/06 03:19:06;;;;;;;9.43;3.53;;;;;;;3.93;73.07;99774.25;1087073;54;20034;-76
2022/01/06 03:20:12;;;;;;;13.43;3.05;;;;;;;3.90;73.13;99777.97;1087015;54;20034;-76
2022/01/06 03:21:14;;;;;;;9.65;3.08;;;;;;;3.88;73.44;99782.50;1086945;54;20042;-76
2022/01/06 03:22:19;;;;;;;11.63;3.25;;;;;;;4.02;73.37;99780.69;1086778;54;20054;-76
2022/01/06 03:23:23;;;;;;;7.25;2.53;;;;;;;4.12;72.89;99783.53;1089084;47;20034;-76
2022/01/06 03:24:27;;;;;;;9.75;2.72;;;;;;;4.01;73.18;99781.66;1086871;54;20034;-75
2022/01/06 03:25:28;;;;;;;9.48;2.70;;;;;;;4.11;73.01;99787.97;1087024;54;20058;-75
2022/01/06 03:26:33;;;;;;;8.27;3.05;;;;;;;4.08;73.04;99782.06;1086975;54;20034;-77
2022/01/06 03:27:35;;;;;;;8.18;2.53;;;;;;;4.21;72.45;99794.31;1086944;54;20778;-74
2022/01/06 03:28:39;;;;;;;7.13;2.25;;;;;;;4.27;72.32;99787.72;1090885;39;20648;-79
2022/01/06 03:29:40;;;;;;;7.75;3.20;;;;;;;4.21;72.56;99789.00;1086995;54;20033;-75
2022/01/06 03:30:44;;;;;;;7.65;2.70;;;;;;;4.19;72.52;99788.28;1086835;54;20027;-75
2022/01/06 03:31:46;;;;;;;9.88;2.80;;;;;;;4.00;73.15;99785.25;1086976;54;20050;-75
2022/01/06 03:32:50;;;;;;;8.80;3.70;;;;;;;3.94;73.57;99789.16;1087005;54;20030;-77
2022/01/06 03:33:52;;;;;;;9.68;3.03;;;;;;;3.87;73.66;99791.41;1087173;54;20057;-75
2022/01/06 03:34:56;;;;;;;12.32;3.22;;;;;;;3.92;73.81;99790.25;1087102;54;20036;-78
2022/01/06 03:35:57;;;;;;;9.93;3.17;;;;;;;3.85;73.92;99793.31;1087238;54;20043;-77
2022/01/06 03:37:03;;;;;;;11.52;3.33;;;;;;;3.84;73.74;99796.91;1087517;46;20045;-77
2022/01/06 03:38:04;;;;;;;9.65;2.90;;;;;;;3.83;74.18;99805.81;1087107;54;20035;-77
2022/01/06 03:39:11;;;;;;;7.72;2.92;;;;;;;3.83;74.43;99789.94;1087295;54;21153;-77
2022/01/06 03:40:13;;;;;;;11.00;3.47;;;;;;;3.79;74.49;99798.19;1087112;54;20812;-76
2022/01/06 03:41:17;;;;;;;8.57;3.35;;;;;;;3.88;74.28;99795.75;1087176;54;20090;-75
2022/01/06 03:42:19;;;;;;;7.85;3.10;;;;;;;3.82;74.48;99798.81;1087298;54;20041;-75
2022/01/06 03:43:24;;;;;;;11.65;4.80;;;;;;;3.97;74.09;99794.25;1087418;54;20042;-76
2022/01/06 03:44:27;;;;;;;10.68;3.53;;;;;;;3.86;74.38;99799.44;1087378;54;20069;-76
2022/01/06 03:45:32;;;;;;;12.43;3.05;;;;;;;3.73;74.96;99789.72;1087418;54;20030;-76
2022/01/06 03:46:34;;;;;;;12.05;3.30;;;;;;;3.74;75.01;99798.50;1087465;54;20037;-77
2022/01/06 03:47:38;;;;;;;10.25;3.00;;;;;;;3.74;75.35;99795.88;1087376;46;20037;-76
2022/01/06 03:48:40;;;;;;;10.27;3.10;;;;;;;3.83;75.23;99800.53;1087378;54;20038;-76
2022/01/06 03:49:44;;;;;;;11.13;3.65;;;;;;;3.76;75.38;99804.56;1088859;39;20685;-77
2022/01/06 03:50:48;;;;;;;9.18;2.92;;;;;;;3.82;75.22;99801.47;1087386;54;20014;-76
2022/01/06 03:51:50;;;;;;;8.15;2.78;;;;;;;3.90;74.79;99804.41;1087374;54;21096;-77
2022/01/06 03:52:54;;;;;;;7.43;2.70;;;;;;;3.94;74.64;99814.78;1087276;54;20030;-77
2022/01/06 03:53:56;;;;;;;9.48;3.38;;;;;;;3.88;74.77;99805.47;1087255;54;20034;-76
2022/01/06 03:55:02;;;;;;;7.78;2.90;;;;;;;3.79;75.08;99819.34;1087345;54;20037;-76
2022/01/06 03:56:04;;;;;;;8.90;2.90;;;;;;;3.95;74.64;99816.47;1087106;54;20034;-77
2022/01/06 03:57:08;;;;;;;6.43;2.63;;;;;;;4.07;74.22;99820.88;1087212;54;20034;-76
2022/01/06 03:58:11;;;;;;;7.00;2.70;;;;;;;3.96;74.56;99807.59;1087257;54;20718;-76
2022/01/06 03:59:15;;;;;;;10.13;3.53;;;;;;;3.88;75.32;99808.97;1087369;54;20034;-75
2022/01/06 04:00:19;;;;;;;9.05;3.03;;;;;;;3.88;75.55;99814.25;1087229;54;20054;-76
2022/01/06 04:01:23;;;;;;;10.43;2.92;;;;;;;3.95;75.13;99813.84;1086983;54;20040;-75
2022/01/06 04:02:25;;;;;;;8.40;3.15;;;;;;;3.81;75.77;99810.34;1087074;54;20030;-75
2022/01/06 04:03:29;;;;;;;13.48;3.70;;;;;;;3.86;75.79;99800.31;1087191;54;20030;-76
2022/01/06 04:04:31;;;;;;;12.00;3.35;;;;;;;3.88;75.81;99802.84;1087386;54;20042;-75
2022/01/06 04:05:35;;;;;;;9.65;3.17;;;;;;;3.92;75.66;99800.81;1087358;54;20030;-76
2022/01/06 04:06:36;;;;;;;8.80;2.70;;;;;;;3.82;76.02;99796.19;1087317;54;20057;-76
2022/01/06 04:07:41;;;;;;;12.77;3.05;;;;;;;3.78;75.92;99797.34;1087371;54;20078;-76
2022/01/06 04:08:44;;;;;;;9.98;3.03;;;;;;;3.67;76.46;99794.63;1087320;54;20071;-75
2022/01/06 04:09:49;;;;;;;12.40;3.50;;;;;;;3.59;76.74;99798.59;1087018;54;20062;-76
2022/01/06 04:10:53;;;;;;;12.05;4.95;;;;;;;3.58;76.95;99796.94;1087370;54;20034;-78
2022/01/06 04:11:57;;;;;;;9.55;3.45;;;;;;;3.64;76.82;99800.09;1087273;54;20042;-78
2022/01/06 04:12:59;;;;;;;10.90;3.65;;;;;;;3.58;76.83;99796.94;1087269;54;20038;-78
2022/01/06 04:14:03;;;;;;;10.65;3.15;;;;;;;3.80;76.35;99800.72;1087297;54;20054;-76
2022/01/06 04:15:10;;;;;;;8.57;2.97;;;;;;;3.94;75.65;99801.56;1087260;54;20034;-76
2022/01/06 04:16:16;;;;;;;7.40;3.03;;;;;;;4.05;75.23;99805.13;1087142;54;20034;-76
2022/01/06 04:17:18;;;;;;;7.55;2.65;;;;;;;4.00;75.50;99801.97;1087327;54;20094;-76
2022/01/06 04:18:23;;;;;;;9.27;2.90;;;;;;;3.98;75.37;99806.53;1087266;54;20069;-77
2022/01/06 04:19:24;;;;;;;10.18;3.40;;;;;;;3.92;75.56;99816.69;1087187;54;20805;-77
2022/01/06 04:20:29;;;;;;;7.68;2.60;;;;;;;3.93;75.54;99807.81;1088061;39;20603;-77
2022/01/06 04:21:30;;;;;;;9.25;3.17;;;;;;;3.87;75.70;99817.84;1087181;54;20031;-76
2022/01/06 04:22:35;;;;;;;12.50;3.53;;;;;;;3.85;75.69;99824.19;1087140;54;20042;-77
2022/01/06 04:23:36;;;;;;;10.05;2.70;;;;;;;3.98;75.40;99821.53;1087655;46;20038;-77
2022/01/06 04:24:41;;;;;;;10.20;3.13;;;;;;;4.11;74.99;99819.72;1088076;39;20300;-75
2022/01/06 04:25:42;;;;;;;8.10;3.03;;;;;;;4.20;74.81;99820.88;1087094;54;20038;-76
2022/01/06 04:26:49;;;;;;;11.60;3.15;;;;;;;4.27;74.35;99832.72;1087270;54;20058;-76
2022/01/06 04:27:50;;;;;;;8.52;2.83;;;;;;;4.24;74.50;99829.44;1087362;54;20034;-76
2022/01/06 04:28:54;;;;;;;5.95;2.42;;;;;;;4.28;74.46;99830.91;1087660;46;20813;-76
2022/01/06 04:29:56;;;;;;;8.77;2.85;;;;;;;4.12;74.71;99834.66;1087267;54;20030;-76
2022/01/06 04:31:00;;;;;;;9.20;3.65;;;;;;;4.01;74.96;99822.19;1087405;39;20313;-76
2022/01/06 04:32:02;;;;;;;8.85;3.25;;;;;;;3.90;75.13;99825.56;1087176;54;20797;-77
2022/01/06 04:33:07;;;;;;;8.98;3.83;;;;;;;3.82;75.64;99838.50;1087210;54;20041;-76
2022/01/06 04:34:08;;;;;;;8.05;3.03;;;;;;;4.00;75.00;99833.72;1087378;54;20046;-76
2022/01/06 04:35:13;;;;;;;9.60;3.42;;;;;;;4.11;74.77;99835.59;1087134;54;20030;-75
2022/01/06 04:36:18;;;;;;;7.80;2.90;;;;;;;4.08;74.66;99830.53;1087295;54;20383;-77
2022/01/06 04:37:19;;;;;;;10.77;2.53;;;;;;;4.08;74.97;99827.88;1087177;54;20061;-76
2022/01/06 04:38:24;;;;;;;8.50;3.47;;;;;;;3.99;75.08;99828.53;1087270;54;20857;-77
2022/01/06 04:39:27;;;;;;;8.52;3.38;;;;;;;3.97;74.79;99831.28;1087187;54;20041;-76
2022/01/06 04:40:31;;;;;;;8.50;2.67;;;;;;;3.99;74.75;99836.47;1087366;54;20127;-76
2022/01/06 04:41:32;;;;;;;8.07;2.85;;;;;;;4.04;74.62;99834.34;1087170;54;20061;-76
2022/01/06 04:42:39;;;;;;;7.28;2.90;;;;;;;4.12;74.25;99837.31;1087232;54;20034;-77
2022/01/06 04:43:41;;;;;;;9.13;2.85;;;;;;;4.25;74.05;99847.84;1087224;54;20038;-76
2022/01/06 04:44:45;;;;;;;8.40;2.85;;;;;;;4.28;74.13;99837.06;1088511;46;21105;-77
2022/01/06 04:45:47;;;;;;;8.77;2.90;;;;;;;4.20;74.40;99840.25;1087629;39;20598;-77
2022/01/06 04:46:52;;;;;;;7.38;2.63;;;;;;;4.17;74.19;99835.16;1087268;54;20058;-77
2022/01/06 04:47:53;;;;;;;11.32;4.32;;;;;;;4.18;74.26;99841.31;1087122;54;20042;-76
2022/01/06 04:48:58;;;;;;;10.80;2.90;;;;;;;4.04;74.38;99840.47;1087058;54;20042;-76
2022/01/06 04:50:00;;;;;;;8.13;2.78;;;;;;;4.22;73.85;99838.34;1087145;54;20037;-76
2022/01/06 04:51:04;;;;;;;9.40;3.17;;;;;;;4.28;73.74;99841.50;1089147;39;20678;-76
2022/01/06 04:52:06;;;;;;;5.45;2.20;;;;;;;4.37;73.67;99846.13;1087052;54;20687;-76
2022/01/06 04:53:10;;;;;;;8.75;3.53;;;;;;;4.31;73.69;99844.75;1087293;54;20030;-76
2022/01/06 04:54:12;;;;;;;9.85;3.05;;;;;;;4.26;73.62;99857.50;1087057;54;20063;-76
2022/01/06 04:55:16;;;;;;;7.65;2.58;;;;;;;4.33;73.60;99847.31;1087046;54;20041;-76
2022/01/06 04:56:18;;;;;;;9.25;2.97;;;;;;;4.29;73.67;99848.47;1087111;54;20038;-76
2022/01/06 04:57:22;;;;;;;8.27;3.03;;;;;;;4.33;73.60;99855.25;1087263;54;20042;-76
2022/01/06 04:58:26;;;;;;;7.93;2.50;;;;;;;4.40;73.40;99845.91;1087038;54;20083;-76
2022/01/06 04:59:31;;;;;;;8.70;2.40;;;;;;;4.48;73.12;99851.50;1087299;54;20073;-76
2022/01/06 05:00:32;;;;;;;7.38;2.10;;;;;;;4.48;73.16;99858.63;1087016;54;20065;-76
2022/01/06 05:01:37;;;;;;;5.22;2.10;;;;;;;4.50;72.89;99857.53;1086974;54;20030;-76
2022/01/06 05:02:39;;;;;;;6.22;2.42;;;;;;;4.49;72.95;99855.84;1087128;54;20050;-77
2022/01/06 05:03:43;;;;;;;7.38;2.80;;;;;;;4.40;73.15;99859.16;1087243;54;20057;-76
2022/01/06 05:04:45;;;;;;;7.30;2.28;;;;;;;4.40;73.22;99856.50;1087043;54;20070;-76
2022/01/06 05:05:50;;;;;;;6.60;2.40;;;;;;;4.51;73.12;99861.88;1087195;54;20039;-76
2022/01/06 05:06:54;;;;;;;9.38;2.70;;;;;;;4.46;72.88;99865.81;1087175;54;20041;-76
2022/01/06 05:07:55;;;;;;;7.38;2.40;;;;;;;4.45;73.00;99870.25;1087129;54;20038;-76